Terminal Aerodrome Forecast
Issued by NWS

Home | Current Version | Previous Version | Graphics & Text | Print | Product List | Glossary On
Versions: 1 2 3 4 5 6 7 8 9 10 11 12 13 14 15 16
685
FTUS43 KICT 171036 AAA
TAFHUT
TAF AMD
KHUT 171036Z 1711/1806 18016G24KT 5SM BR OVC010
      TEMPO 1711/1714 OVC008
     FM171500 20014KT P6SM SCT025
     FM180500 29012KT P6SM SCT200=

USA.gov is the U.S. government's official web portal to all federal, state and local government web resources and services.